Time;durP1;ratioP1;P1;durP2;ratioP2;P2;SDS_P1;SDS_P2;PMS_P1;PMS_P2;Temp;Humidity;BMP_temperature;BMP_pressure;BME280_temperature;BME280_humidity;BME280_pressure;Samples;Min_cycle;Max_cycle;Signal;HPM_P1;HPM_P2
2022/06/23 00:01:53;;;;;;;8.57;4.27;;;;;;;12.68;72.67;101143.94;5054902;28;20136;-67
2022/06/23 00:04:45;;;;;;;8.23;4.30;;;;;;;12.63;72.52;101135.56;5054851;28;20060;-66
2022/06/23 00:07:25;;;;;;;9.82;3.90;;;;;;;12.59;72.67;101128.06;5054742;28;20076;-63
2022/06/23 00:09:53;;;;;;;7.60;4.30;;;;;;;12.55;73.14;101119.56;5054467;28;20055;-67
2022/06/23 00:12:24;;;;;;;6.15;3.35;;;;;;;12.59;73.02;101128.06;5054574;28;20041;-66
2022/06/23 00:15:16;;;;;;;6.33;4.20;;;;;;;12.64;72.51;101139.09;5054407;28;20032;-66
2022/06/23 00:18:05;;;;;;;7.37;3.63;;;;;;;12.64;72.81;101142.59;5054496;28;20037;-67
2022/06/23 00:20:43;;;;;;;6.73;3.90;;;;;;;12.60;73.00;101135.91;5054374;28;20044;-65
2022/06/23 00:23:25;;;;;;;17.33;4.93;;;;;;;12.59;72.99;101142.25;5054375;28;20098;-65
2022/06/23 00:25:56;;;;;;;8.00;4.07;;;;;;;12.55;73.39;101143.59;5054651;28;20045;-66
2022/06/23 00:28:29;;;;;;;9.87;5.17;;;;;;;12.52;73.67;101143.09;5054184;28;20036;-66
2022/06/23 00:30:58;;;;;;;11.33;4.63;;;;;;;12.22;74.05;101096.50;5054089;28;20025;-66
2022/06/23 00:33:27;;;;;;;7.17;4.57;;;;;;;12.51;74.13;101139.59;5053910;28;20025;-65
2022/06/23 00:35:55;;;;;;;9.90;3.80;;;;;;;12.39;73.94;101133.72;5054144;28;20484;-64
2022/06/23 00:38:27;;;;;;;15.83;5.30;;;;;;;12.47;74.29;101148.94;5054325;28;20048;-68
2022/06/23 00:40:54;;;;;;;7.20;4.07;;;;;;;12.15;74.49;101103.50;5054074;28;20045;-67
2022/06/23 00:43:21;;;;;;;10.07;4.80;;;;;;;12.43;74.75;101150.25;5053973;28;20045;-68
2022/06/23 00:45:54;;;;;;;11.53;4.07;;;;;;;12.46;74.34;101155.28;5052857;28;20037;-67
2022/06/23 00:48:28;;;;;;;6.93;4.73;;;;;;;12.44;74.75;101154.63;5053971;28;20079;-67
2022/06/23 00:51:04;;;;;;;10.23;4.27;;;;;;;12.48;74.31;101158.63;5053708;28;20057;-65
2022/06/23 00:53:38;;;;;;;10.03;4.60;;;;;;;12.47;74.64;101167.66;5053982;28;20706;-66
2022/06/23 00:56:17;;;;;;;8.50;4.80;;;;;;;12.48;74.91;101166.66;5053564;28;20136;-66
2022/06/23 00:58:54;;;;;;;8.20;4.43;;;;;;;12.40;74.58;101158.59;5052580;28;20116;-65
2022/06/23 01:01:42;;;;;;;10.80;4.70;;;;;;;12.36;74.91;101150.06;5053371;28;20067;-67
2022/06/23 01:04:23;;;;;;;10.13;4.17;;;;;;;12.43;75.19;101170.78;5053574;28;20564;-65
2022/06/23 01:06:57;;;;;;;8.20;4.83;;;;;;;12.16;75.70;101131.88;5053588;28;20043;-65
2022/06/23 01:09:48;;;;;;;16.10;4.97;;;;;;;12.42;75.18;101172.63;5052293;28;20036;-66
2022/06/23 01:12:24;;;;;;;8.47;5.37;;;;;;;12.26;75.51;101156.59;5053506;28;20484;-65
2022/06/23 01:14:56;;;;;;;12.37;5.90;;;;;;;12.22;75.65;101147.22;5053300;28;20079;-65
2022/06/23 01:17:47;;;;;;;13.27;5.70;;;;;;;12.35;75.99;101184.97;5053643;28;20033;-66
2022/06/23 01:20:16;;;;;;;9.50;5.07;;;;;;;12.30;76.17;101176.63;5035625;28;20032;-67
2022/06/23 01:22:54;;;;;;;12.07;5.23;;;;;;;12.33;76.47;101178.97;5053381;28;20392;-68
2022/06/23 01:25:22;;;;;;;10.87;5.43;;;;;;;12.32;76.67;101182.63;5052507;28;20040;-66
2022/06/23 01:27:57;;;;;;;11.88;5.07;;;;;;;12.14;76.92;101168.56;5053181;28;20259;-65
2022/06/23 01:30:27;;;;;;;13.33;6.27;;;;;;;12.23;76.99;101171.09;5053458;28;20123;-66
2022/06/23 01:33:02;;;;;;;14.23;5.23;;;;;;;12.30;77.33;101182.78;5053457;28;20109;-67
2022/06/23 01:35:34;;;;;;;13.00;5.50;;;;;;;12.32;77.30;101187.97;5051654;28;20461;-65
2022/06/23 01:38:09;;;;;;;10.97;5.63;;;;;;;11.54;77.42;101057.41;5053042;28;20037;-65
2022/06/23 01:40:44;;;;;;;12.80;6.20;;;;;;;12.34;77.32;101191.31;5053237;28;20029;-67
2022/06/23 01:43:19;;;;;;;14.70;6.47;;;;;;;12.32;77.96;101190.63;5052880;28;20253;-65
2022/06/23 01:45:57;;;;;;;8.13;5.83;;;;;;;12.34;77.90;101184.13;5052851;28;20116;-64
2022/06/23 01:48:51;;;;;;;9.95;5.78;;;;;;;12.33;77.72;101186.97;5052957;28;20037;-67
2022/06/23 01:51:30;;;;;;;11.83;6.00;;;;;;;12.37;77.98;101189.16;5052952;28;20033;-67
2022/06/23 01:54:21;;;;;;;10.60;6.25;;;;;;;12.38;77.70;101179.28;5052563;28;20079;-65
2022/06/23 01:57:08;;;;;;;15.37;7.37;;;;;;;12.59;77.44;101190.34;5052634;28;20444;-68
2022/06/23 01:59:37;;;;;;;13.23;6.20;;;;;;;12.68;77.53;101199.22;5052543;28;20043;-63
2022/06/23 02:02:11;;;;;;;15.98;7.25;;;;;;;12.76;77.22;101198.41;5052539;28;20467;-66
2022/06/23 02:04:47;;;;;;;16.67;5.93;;;;;;;12.86;76.67;101199.06;5052666;28;20496;-65
2022/06/23 02:07:26;;;;;;;15.07;5.90;;;;;;;12.93;76.92;101205.41;5052869;28;20040;-66
2022/06/23 02:09:57;;;;;;;13.55;5.88;;;;;;;12.90;76.65;101189.72;5052738;28;20109;-64
2022/06/23 02:12:26;;;;;;;13.53;5.90;;;;;;;12.97;76.83;101196.88;5051340;28;20128;-64
2022/06/23 02:14:56;;;;;;;;;;;;;;;13.08;75.73;101203.75;5052881;28;20107;-65
2022/06/23 02:17:33;;;;;;;10.87;6.30;;;;;;;12.98;76.64;101192.38;5052331;28;20023;-66
2022/06/23 02:20:15;;;;;;;12.63;6.10;;;;;;;13.01;76.95;101197.41;5052515;28;20040;-64
2022/06/23 02:22:45;;;;;;;16.57;6.67;;;;;;;13.12;76.98;101198.91;5052209;28;20032;-67
2022/06/23 02:25:25;;;;;;;12.83;6.40;;;;;;;12.88;76.68;101151.63;5052312;28;20044;-65
2022/06/23 02:27:59;;;;;;;11.27;6.73;;;;;;;13.25;77.04;101207.25;5051987;28;20033;-65
2022/06/23 02:30:32;;;;;;;13.23;7.10;;;;;;;13.31;76.55;101207.44;5052360;28;20033;-66
2022/06/23 02:32:58;;;;;;;9.17;6.87;;;;;;;13.35;76.92;101213.28;5052420;28;20044;-66
2022/06/23 02:35:23;;;;;;;13.77;7.07;;;;;;;13.38;76.67;101204.91;5052236;28;20041;-67
2022/06/23 02:37:58;;;;;;;18.27;6.73;;;;;;;13.40;76.66;101202.06;5051491;28;20029;-67
2022/06/23 02:40:37;;;;;;;11.53;7.30;;;;;;;13.40;76.96;101205.56;5051875;28;20033;-65
2022/06/23 02:43:27;;;;;;;11.93;6.90;;;;;;;13.38;77.16;101201.41;5034377;28;20381;-64
2022/06/23 02:46:07;;;;;;;13.13;6.83;;;;;;;13.45;77.44;101215.75;5052054;28;20041;-67
2022/06/23 02:49:00;;;;;;;12.40;5.83;;;;;;;13.51;77.12;101212.41;5051755;28;20033;-66
2022/06/23 02:51:57;;;;;;;11.53;7.17;;;;;;;13.71;76.71;101211.03;5052131;28;20041;-64
2022/06/23 02:54:38;;;;;;;10.55;7.35;;;;;;;15.30;72.63;101208.69;5053416;28;20408;-66
2022/06/23 02:57:03;;;;;;;15.10;8.37;;;;;;;17.80;64.75;101209.81;5052599;28;20469;-63
2022/06/23 02:59:51;;;;;;;12.37;6.77;;;;;;;20.03;58.25;101208.41;5053091;28;20063;-63
2022/06/23 03:02:20;;;;;;;15.80;6.90;;;;;;;21.70;52.60;101211.63;5053764;28;20057;-66
2022/06/23 03:04:59;;;;;;;;;;;;;;;22.95;49.72;101207.28;5056725;28;20047;-64
2022/06/23 03:07:41;;;;;;;12.20;7.33;;;;;;;23.43;47.13;101203.56;5055600;28;19920;-67
2022/06/23 03:10:23;;;;;;;13.60;7.97;;;;;;;23.92;45.23;101196.78;5052752;28;20044;-66
2022/06/23 03:13:06;;;;;;;17.23;7.28;;;;;;;24.37;44.45;101205.06;5050337;28;20114;-67
2022/06/23 03:15:40;;;;;;;18.50;8.07;;;;;;;24.60;44.51;101197.88;5051348;28;20444;-68
2022/06/23 03:18:39;;;;;;;10.85;7.50;;;;;;;25.01;44.28;101205.69;5051437;28;20103;-65
2022/06/23 03:21:12;;;;;;;14.65;7.00;;;;;;;25.00;43.00;101176.78;5050066;28;20067;-66
2022/06/23 03:23:47;;;;;;;15.63;7.22;;;;;;;25.14;43.01;101181.88;5051350;28;20044;-65
2022/06/23 03:26:33;;;;;;;10.63;6.78;;;;;;;25.40;43.37;101197.56;5051307;28;20408;-67
2022/06/23 03:29:10;;;;;;;10.45;6.53;;;;;;;25.56;42.83;101207.63;5051375;28;20127;-67
2022/06/23 03:32:21;;;;;;;12.83;6.80;;;;;;;25.81;42.67;101209.09;5050278;28;20029;-66
2022/06/23 03:34:54;;;;;;;12.95;6.80;;;;;;;25.85;42.68;101212.94;5044172;28;20049;-67
2022/06/23 03:37:28;;;;;;;14.10;6.18;;;;;;;24.44;45.41;101210.34;5050419;28;20405;-66
2022/06/23 03:43:24;;;;;;;6.97;4.85;;;;;;;24.44;46.38;101218.53;5051310;28;20450;-68
2022/06/23 03:46:06;;;;;;;8.10;3.58;;;;;;;23.55;47.54;101217.97;5051588;28;20122;-68
2022/06/23 03:48:48;;;;;;;8.85;4.55;;;;;;;21.94;51.60;101222.38;5051185;28;20047;-64
2022/06/23 03:51:31;;;;;;;7.72;4.85;;;;;;;20.65;54.64;101190.63;5054792;28;20041;-63
2022/06/23 03:54:06;;;;;;;9.15;4.50;;;;;;;21.20;53.24;101171.03;5054938;28;20075;-64
2022/06/23 03:57:10;;;;;;;5.28;4.45;;;;;;;21.04;54.82;101223.84;5053394;28;20399;-66
2022/06/23 03:59:54;;;;;;;6.85;5.22;;;;;;;20.28;57.87;101235.56;5054965;28;20072;-67
2022/06/23 04:02:27;;;;;;;8.32;5.75;;;;;;;20.98;55.98;101228.28;5055846;28;20148;-66
2022/06/23 04:05:11;;;;;;;6.78;4.18;;;;;;;22.78;50.00;101236.97;5057544;28;20103;-66
2022/06/23 04:07:51;;;;;;;6.45;4.57;;;;;;;23.73;48.32;101234.19;5057842;28;20109;-64
2022/06/23 04:10:42;;;;;;;9.18;5.32;;;;;;;25.01;45.02;101230.22;5057475;28;20044;-66
2022/06/23 04:13:19;;;;;;;8.48;4.75;;;;;;;25.85;42.26;101232.06;5054599;28;20428;-67
2022/06/23 04:15:45;;;;;;;5.53;4.83;;;;;;;26.53;39.80;101238.91;5058015;28;20488;-68
2022/06/23 04:18:27;;;;;;;5.13;4.63;;;;;;;26.65;39.15;101223.19;5054793;28;20341;-67
2022/06/23 04:20:58;;;;;;;4.80;3.80;;;;;;;26.76;38.15;101230.41;5055836;28;20036;-65
2022/06/23 04:23:32;;;;;;;4.55;4.13;;;;;;;26.73;38.04;101230.91;5055201;28;20496;-67
2022/06/23 04:26:14;;;;;;;8.38;3.42;;;;;;;27.05;36.47;101217.28;5054921;28;20037;-66
2022/06/23 04:28:50;;;;;;;4.30;2.80;;;;;;;27.17;35.77;101212.44;5053909;28;20514;-68
2022/06/23 04:31:26;;;;;;;5.10;3.25;;;;;;;27.36;34.62;101206.59;5054260;28;20116;-66
2022/06/23 04:33:53;;;;;;;3.17;2.90;;;;;;;27.38;34.84;101202.50;5054423;28;20135;-66
2022/06/23 04:36:24;;;;;;;4.80;3.67;;;;;;;27.23;35.19;101171.50;5054048;28;20044;-66
2022/06/23 04:39:05;;;;;;;7.32;4.85;;;;;;;27.21;35.69;101210.03;5054024;28;20408;-68
2022/06/23 04:42:10;;;;;;;11.15;5.88;;;;;;;27.37;36.69;101222.72;5052931;28;20033;-66
2022/06/23 04:44:43;;;;;;;5.78;3.45;;;;;;;27.03;36.25;101194.88;5015219;28;20048;-66
2022/06/23 04:47:18;;;;;;;8.63;3.75;;;;;;;27.22;35.82;101230.00;5050880;28;20503;-67
2022/06/23 04:49:57;;;;;;;6.90;3.50;;;;;;;27.04;34.58;101206.63;5053813;28;20041;-66
2022/06/23 04:52:29;;;;;;;5.22;3.00;;;;;;;27.14;34.74;101223.09;5054120;28;20120;-67
2022/06/23 04:55:04;;;;;;;3.70;2.90;;;;;;;27.14;34.32;101242.22;5054037;28;20029;-65
2022/06/23 04:57:56;;;;;;;5.55;2.50;;;;;;;27.08;34.92;101224.16;5052428;28;20044;-66
2022/06/23 05:00:29;;;;;;;4.15;2.35;;;;;;;27.59;33.54;101238.19;5053716;28;20037;-66
2022/06/23 05:03:13;;;;;;;5.28;3.05;;;;;;;27.79;33.28;101246.56;5055049;28;20086;-65
2022/06/23 05:05:38;;;;;;;5.43;3.03;;;;;;;27.69;31.57;101230.88;5055187;28;20124;-65
2022/06/23 05:08:23;;;;;;;2.95;2.30;;;;;;;27.69;32.50;101241.84;5055397;28;20497;-64
2022/06/23 05:10:54;;;;;;;10.23;2.97;;;;;;;27.79;32.33;101243.00;5055161;28;20128;-64
2022/06/23 05:13:27;;;;;;;5.97;3.22;;;;;;;27.63;32.74;101239.34;5054322;28;20037;-65
2022/06/23 05:16:01;;;;;;;4.63;3.00;;;;;;;27.53;31.86;101242.81;5053617;28;20036;-66
2022/06/23 05:18:31;;;;;;;6.63;2.60;;;;;;;26.93;31.83;101210.34;5053566;28;20048;-68
2022/06/23 05:21:04;;;;;;;5.80;2.60;;;;;;;26.60;32.65;101247.75;5051913;28;20051;-67
2022/06/23 05:24:09;;;;;;;5.85;2.72;;;;;;;25.83;34.51;101240.50;5052240;28;20080;-68
2022/06/23 05:26:43;;;;;;;6.05;2.70;;;;;;;25.36;34.84;101242.75;5048976;28;20144;-65
2022/06/23 05:29:23;;;;;;;7.22;2.85;;;;;;;24.23;36.13;101230.88;5052956;28;20060;-67
2022/06/23 05:32:04;;;;;;;5.32;2.92;;;;;;;23.04;39.22;101243.09;5053915;28;20127;-67
2022/06/23 05:34:33;;;;;;;9.75;2.70;;;;;;;22.01;41.66;101235.06;5053733;28;20037;-66
2022/06/23 05:37:14;;;;;;;6.30;2.75;;;;;;;21.45;43.39;101236.06;5053709;28;20596;-67
2022/06/23 05:39:39;;;;;;;6.25;3.22;;;;;;;20.97;43.46;101231.22;5053637;28;20489;-66
2022/06/23 05:42:29;;;;;;;4.00;2.58;;;;;;;20.73;44.04;101246.34;5052585;28;20044;-67
2022/06/23 05:45:01;;;;;;;9.38;2.50;;;;;;;20.51;45.51;101247.72;5050506;28;20147;-66
2022/06/23 05:47:31;;;;;;;12.18;3.55;;;;;;;20.41;45.13;101253.63;5052479;28;20143;-65
2022/06/23 05:50:00;;;;;;;2.50;2.22;;;;;;;20.24;44.03;101249.69;5052461;28;20041;-67
2022/06/23 05:52:31;;;;;;;6.55;2.38;;;;;;;19.99;44.18;101234.19;5052657;28;20029;-67
2022/06/23 05:55:21;;;;;;;4.55;2.40;;;;;;;20.06;44.78;101251.22;5052634;28;20032;-67
2022/06/23 05:57:59;;;;;;;6.22;2.70;;;;;;;20.00;44.71;101254.78;5052518;28;20496;-66
2022/06/23 06:00:46;;;;;;;2.85;2.22;;;;;;;19.85;44.80;101270.41;5052246;28;20076;-65
2022/06/23 06:03:29;;;;;;;3.67;2.60;;;;;;;19.78;44.80;101247.97;5052638;28;20045;-65
2022/06/23 06:05:58;;;;;;;5.78;2.50;;;;;;;19.75;46.26;101249.22;5052387;28;20029;-67
2022/06/23 06:11:44;;;;;;;3.25;2.30;;;;;;;19.52;44.49;101231.78;5050180;28;20051;-63
2022/06/23 06:14:15;;;;;;;5.60;2.97;;;;;;;19.54;44.59;101243.22;5052649;28;20561;-65
2022/06/23 06:16:41;;;;;;;3.72;2.47;;;;;;;19.54;44.17;101262.16;5052533;28;20040;-66
2022/06/23 06:19:14;;;;;;;4.57;2.20;;;;;;;19.50;44.51;101259.84;5052466;28;20041;-66
2022/06/23 06:21:39;;;;;;;9.88;2.28;;;;;;;19.57;44.77;101246.34;5052779;28;20040;-65
2022/06/23 06:24:27;;;;;;;5.22;1.75;;;;;;;19.69;45.59;101254.66;5052427;28;20033;-66
2022/06/23 06:26:54;;;;;;;8.10;2.03;;;;;;;19.72;45.28;101259.63;5052349;28;20485;-69
2022/06/23 06:29:29;;;;;;;63.15;16.48;;;;;;;19.72;44.41;101271.28;5052243;28;20091;-63
2022/06/23 06:32:19;;;;;;;11.55;5.15;;;;;;;19.68;43.64;101271.91;5052208;28;20029;-67
2022/06/23 06:34:53;;;;;;;57.92;16.52;;;;;;;19.69;44.53;101260.91;5052278;28;20068;-65
2022/06/23 06:37:20;;;;;;;12.98;5.18;;;;;;;19.64;43.88;101254.44;5052305;28;20399;-68
2022/06/23 06:39:50;;;;;;;21.73;6.40;;;;;;;19.75;44.25;101275.44;5051894;28;20120;-68
2022/06/23 06:42:24;;;;;;;40.47;11.05;;;;;;;19.70;44.50;101267.97;5052134;28;20131;-65
2022/06/23 06:44:53;;;;;;;369.65;90.65;;;;;;;19.68;44.97;101261.09;5052267;28;20037;-65
2022/06/23 06:47:28;;;;;;;27.63;10.80;;;;;;;19.76;45.44;101268.97;5052040;28;20044;-67
2022/06/23 06:49:59;;;;;;;61.70;17.60;;;;;;;19.73;45.33;101255.91;5051978;28;20074;-67
2022/06/23 06:52:26;;;;;;;31.17;23.90;;;;;;;19.76;45.96;101271.69;5051787;28;20039;-65
2022/06/23 06:54:56;;;;;;;4.15;2.42;;;;;;;19.81;43.98;101279.97;5051891;28;20025;-68
2022/06/23 06:57:31;;;;;;;4.35;3.33;;;;;;;19.75;46.24;101264.63;5052015;28;20047;-66
2022/06/23 07:00:29;;;;;;;25.63;6.72;;;;;;;19.85;44.62;101272.28;5051814;28;20521;-67
2022/06/23 07:02:59;;;;;;;13.65;4.97;;;;;;;19.91;43.44;101287.66;5049973;28;20493;-68
2022/06/23 07:05:41;;;;;;;13.35;3.25;;;;;;;19.88;43.16;101288.91;5052113;28;20064;-64
2022/06/23 07:08:34;;;;;;;51.40;29.40;;;;;;;19.96;43.25;101291.41;5033992;28;20467;-67
2022/06/23 07:11:26;;;;;;;6.07;2.65;;;;;;;19.87;43.88;101279.13;5051673;28;20049;-68
2022/06/23 07:13:54;;;;;;;4.72;1.98;;;;;;;19.97;42.55;101294.94;5052267;28;20044;-66
2022/06/23 07:16:40;;;;;;;4.65;2.30;;;;;;;19.79;43.60;101271.25;5051886;28;20085;-64
2022/06/23 07:19:06;;;;;;;161.77;28.58;;;;;;;19.95;44.26;101291.59;5051562;28;20044;-66
2022/06/23 07:21:55;;;;;;;11.25;6.45;;;;;;;20.02;44.00;101287.84;5033682;28;20037;-65
2022/06/23 07:24:29;;;;;;;32.00;18.77;;;;;;;19.97;43.35;101279.53;5053136;28;20405;-66
2022/06/23 07:27:02;;;;;;;17.75;6.13;;;;;;;20.02;42.98;101289.72;5056073;28;20043;-67
2022/06/23 07:29:35;;;;;;;5.35;2.78;;;;;;;20.07;43.28;101290.75;5055427;28;20033;-67
2022/06/23 07:32:15;;;;;;;2.70;1.50;;;;;;;20.07;41.67;101279.09;5055228;28;20202;-67
2022/06/23 07:34:48;;;;;;;5.82;2.92;;;;;;;19.91;42.40;101258.75;5055156;28;20052;-67
2022/06/23 07:37:26;;;;;;;4.88;2.08;;;;;;;19.89;40.96;101250.03;5055249;28;20037;-66
2022/06/23 07:39:57;;;;;;;;;;;;;;;20.09;40.96;101291.34;5055840;28;20650;-64
2022/06/23 07:42:40;;;;;;;12.43;3.10;;;;;;;20.06;41.17;101289.09;5055366;28;19959;-66
2022/06/23 07:45:35;;;;;;;9.60;2.80;;;;;;;20.09;42.14;101294.06;5055511;28;20152;-66
2022/06/23 07:48:01;;;;;;;2.60;1.48;;;;;;;20.00;42.29;101279.13;5046589;28;20053;-64
2022/06/23 07:50:28;;;;;;;5.00;1.63;;;;;;;20.00;41.62;101279.13;5055021;28;20404;-66
2022/06/23 07:52:55;;;;;;;4.53;1.58;;;;;;;20.07;41.59;101289.91;5055063;28;20082;-66
2022/06/23 07:55:24;;;;;;;2.60;2.22;;;;;;;20.02;41.64;101293.25;5055164;28;20041;-65
2022/06/23 07:57:50;;;;;;;2.67;1.67;;;;;;;20.02;42.20;101290.56;5055105;28;20051;-67
2022/06/23 08:00:19;;;;;;;4.68;3.80;;;;;;;20.00;42.48;101273.72;5055021;28;20510;-67
2022/06/23 08:02:52;;;;;;;7.38;4.63;;;;;;;19.75;43.01;101237.59;5053578;28;20040;-66
2022/06/23 08:05:22;;;;;;;6.43;2.30;;;;;;;20.24;43.47;101314.59;5055148;28;20055;-66
2022/06/23 08:07:48;;;;;;;6.28;2.45;;;;;;;20.22;43.71;101317.53;5054096;28;20041;-65
2022/06/23 08:10:21;;;;;;;4.07;1.80;;;;;;;20.21;45.06;101309.63;5055044;28;20385;-66
2022/06/23 08:12:57;;;;;;;6.22;3.20;;;;;;;20.26;44.88;101301.72;5054931;28;20055;-63
2022/06/23 08:18:26;;;;;;;2.60;1.75;;;;;;;20.31;44.81;101297.34;5054731;28;20033;-68
2022/06/23 08:21:05;;;;;;;;;;;;;;;20.52;45.25;101323.28;5055384;28;20123;-66
2022/06/23 08:23:36;;;;;;;6.22;2.75;;;;;;;20.47;46.60;101309.56;5054472;28;19928;-68
2022/06/23 08:26:06;;;;;;;6.65;1.98;;;;;;;20.39;45.32;101296.25;5054325;28;20037;-64
2022/06/23 08:28:32;;;;;;;7.43;2.22;;;;;;;20.45;45.83;101287.31;5054881;28;20029;-66
2022/06/23 08:30:58;;;;;;;6.65;2.13;;;;;;;20.42;45.05;101287.72;5054470;28;20063;-65
2022/06/23 08:33:25;;;;;;;4.50;1.73;;;;;;;20.52;42.97;101292.69;5054485;28;20083;-65
2022/06/23 08:35:54;;;;;;;3.40;1.88;;;;;;;20.60;43.95;101298.69;5053888;28;20068;-66
2022/06/23 08:38:22;;;;;;;4.75;2.72;;;;;;;20.69;42.40;101301.97;5054256;28;20029;-65
2022/06/23 08:41:16;;;;;;;1.75;1.30;;;;;;;20.75;38.75;101308.41;5053914;28;20040;-65
2022/06/23 08:44:09;;;;;;;3.80;1.65;;;;;;;20.89;41.63;101312.72;5052866;28;20151;-66
2022/06/23 08:46:46;;;;;;;5.60;2.15;;;;;;;20.97;41.08;101290.78;5053783;28;20044;-68
2022/06/23 08:49:32;;;;;;;3.30;1.58;;;;;;;21.06;37.39;101300.28;5052387;28;20040;-67
2022/06/23 08:52:25;;;;;;;4.70;1.73;;;;;;;21.15;39.28;101304.41;5053902;28;20131;-67
2022/06/23 08:54:54;;;;;;;5.72;1.90;;;;;;;21.25;39.43;101304.78;5052548;28;20499;-64
2022/06/23 08:57:44;;;;;;;3.78;1.95;;;;;;;21.20;38.68;101301.03;5053889;28;20036;-67
2022/06/23 09:00:37;;;;;;;6.95;1.80;;;;;;;21.15;37.12;101299.00;5053791;28;20045;-67
2022/06/23 09:03:19;;;;;;;2.63;1.75;;;;;;;21.19;38.58;101288.56;5053761;28;20052;-64
2022/06/23 09:06:12;;;;;;;2.88;1.58;;;;;;;21.38;38.86;101294.88;5053520;28;20412;-68
2022/06/23 09:08:45;;;;;;;4.10;1.88;;;;;;;21.56;38.43;101300.38;5053796;28;20354;-63
2022/06/23 09:11:15;;;;;;;5.65;1.85;;;;;;;21.60;38.52;101294.28;5053383;28;20056;-67
2022/06/23 09:14:19;;;;;;;10.93;2.17;;;;;;;21.85;38.18;101298.84;5053553;28;20052;-65
2022/06/23 09:17:21;;;;;;;8.98;1.70;;;;;;;21.77;36.73;101307.28;5053611;28;20029;-65
2022/06/23 09:20:02;;;;;;;4.47;2.08;;;;;;;21.77;36.77;101312.69;5053480;28;20044;-66
2022/06/23 09:22:57;;;;;;;7.78;2.03;;;;;;;21.65;36.46;101285.47;5053287;28;20056;-64
2022/06/23 09:25:41;;;;;;;8.95;1.88;;;;;;;21.86;37.73;101298.63;5052047;28;20056;-64
2022/06/23 09:28:07;;;;;;;7.07;1.90;;;;;;;22.00;38.07;101302.03;5053231;28;20116;-68
2022/06/23 09:30:46;;;;;;;2.13;1.52;;;;;;;22.12;38.50;101300.25;5052938;28;20119;-65
2022/06/23 09:33:14;;;;;;;4.97;1.80;;;;;;;22.30;36.76;101296.72;5053307;28;20040;-68
2022/06/23 09:36:05;;;;;;;2.00;1.63;;;;;;;22.45;36.61;101289.00;5053119;28;20071;-64
2022/06/23 09:38:58;;;;;;;3.35;1.73;;;;;;;22.65;35.13;101296.06;5051732;28;20400;-68
2022/06/23 09:42:10;;;;;;;4.47;2.30;;;;;;;22.82;35.16;101300.66;5031782;28;20044;-64
2022/06/23 09:45:02;;;;;;;5.55;2.25;;;;;;;22.69;33.99;101254.66;5051782;28;20404;-67
2022/06/23 09:47:38;;;;;;;6.68;2.83;;;;;;;23.00;34.54;101297.06;5050627;28;20033;-67
2022/06/23 09:50:35;;;;;;;2.17;1.70;;;;;;;23.13;33.63;101307.75;5052766;28;20048;-65
2022/06/23 09:53:06;;;;;;;5.68;2.30;;;;;;;22.95;33.86;101299.66;5052817;28;20519;-65
2022/06/23 09:55:32;;;;;;;2.45;1.88;;;;;;;22.91;34.56;101305.78;5053008;28;20033;-67
2022/06/23 09:58:19;;;;;;;4.93;1.67;;;;;;;22.68;32.57;101295.59;5034524;28;20412;-66
2022/06/23 10:01:09;;;;;;;5.93;2.40;;;;;;;22.60;32.27;101279.66;5055764;28;20057;-64
2022/06/23 10:03:58;;;;;;;5.85;1.42;;;;;;;22.72;31.46;101294.91;5056399;28;20049;-65
2022/06/23 10:06:58;;;;;;;1.85;1.40;;;;;;;22.72;31.98;101277.78;5055972;28;20049;-63
2022/06/23 10:09:51;;;;;;;4.32;2.72;;;;;;;22.99;32.73;101292.69;5052536;28;20037;-66
2022/06/23 10:13:03;;;;;;;2.50;1.52;;;;;;;23.13;32.49;101296.88;5052257;28;20037;-65
2022/06/23 10:16:12;;;;;;;4.40;1.92;;;;;;;23.11;33.58;101293.53;5052345;28;20040;-67
2022/06/23 10:19:02;;;;;;;2.65;1.75;;;;;;;23.17;33.42;101291.81;5029813;28;20037;-67
2022/06/23 10:21:40;;;;;;;3.05;1.70;;;;;;;23.06;33.24;101282.53;5052353;28;20060;-66
2022/06/23 10:24:28;;;;;;;2.03;1.30;;;;;;;23.30;32.44;101301.63;5052350;28;20079;-64
2022/06/23 10:27:34;;;;;;;2.97;1.50;;;;;;;23.43;32.96;101279.66;5051664;28;20033;-67
2022/06/23 10:30:17;;;;;;;1.52;1.20;;;;;;;23.63;32.82;101293.75;5050717;28;20472;-67
2022/06/23 10:32:54;;;;;;;2.20;1.40;;;;;;;23.88;32.26;101298.97;5050966;28;20032;-67
2022/06/23 10:35:51;;;;;;;3.80;2.17;;;;;;;24.06;31.92;101278.97;5050713;28;20401;-67
2022/06/23 10:38:23;;;;;;;2.25;1.48;;;;;;;24.22;32.40;101283.66;5050854;28;20029;-65
2022/06/23 10:41:10;;;;;;;5.10;1.85;;;;;;;24.33;33.59;101280.13;5050838;28;20520;-64
2022/06/23 10:43:57;;;;;;;1.67;1.55;;;;;;;24.48;33.07;101263.25;5051710;28;20037;-65
2022/06/23 10:46:41;;;;;;;2.50;1.85;;;;;;;24.71;32.84;101281.41;5051627;28;20084;-64
2022/06/23 10:49:19;;;;;;;2.00;1.63;;;;;;;24.86;31.47;101262.59;5052322;28;20139;-67
2022/06/23 10:51:56;;;;;;;2.60;1.23;;;;;;;25.03;32.25;101279.00;5050443;28;20127;-64
2022/06/23 10:54:46;;;;;;;7.20;1.85;;;;;;;25.15;33.04;101284.38;5052008;28;20508;-68
2022/06/23 10:57:34;;;;;;;2.50;1.48;;;;;;;25.02;31.43;101288.25;5051955;28;20110;-66
2022/06/23 11:00:20;;;;;;;5.35;1.70;;;;;;;24.88;31.98;101276.81;5055893;28;20032;-68
2022/06/23 11:03:11;;;;;;;5.00;1.83;;;;;;;24.97;32.41;101279.97;5056312;28;20045;-63
2022/06/23 11:06:00;;;;;;;2.97;1.65;;;;;;;24.82;32.48;101294.13;5056084;28;20127;-68
2022/06/23 11:08:50;;;;;;;10.05;1.98;;;;;;;24.62;32.59;101288.31;5055847;28;20072;-66
2022/06/23 11:11:35;;;;;;;3.95;2.05;;;;;;;24.52;33.51;101282.66;5055871;28;20504;-66
2022/06/23 11:14:00;;;;;;;3.88;2.22;;;;;;;24.63;34.38;101287.25;5055752;28;20445;-66
2022/06/23 11:16:35;;;;;;;4.07;2.10;;;;;;;24.64;33.58;101288.91;5055610;28;20056;-67
2022/06/23 11:19:33;;;;;;;2.90;1.70;;;;;;;24.63;34.28;101279.91;5055589;28;20110;-63
2022/06/23 11:22:22;;;;;;;3.50;2.17;;;;;;;24.64;33.86;101291.63;5055859;28;20040;-67
2022/06/23 11:25:01;;;;;;;3.38;1.67;;;;;;;24.47;33.58;101291.53;5055581;28;20102;-65
2022/06/23 11:28:04;;;;;;;3.58;2.15;;;;;;;24.43;34.21;101284.09;5055268;28;20029;-67
2022/06/23 11:30:35;;;;;;;5.00;2.53;;;;;;;24.25;34.27;101294.06;5055517;28;20036;-69
2022/06/23 11:33:21;;;;;;;6.47;2.20;;;;;;;24.30;35.11;101280.59;5055377;28;20098;-66
2022/06/23 11:36:09;;;;;;;3.70;2.08;;;;;;;24.50;34.74;101284.78;5055014;28;20123;-66
2022/06/23 11:38:50;;;;;;;2.55;1.58;;;;;;;24.42;34.53;101282.47;5055388;28;20033;-68
2022/06/23 11:41:37;;;;;;;9.80;1.70;;;;;;;24.39;34.85;101287.31;5053721;28;20041;-64
2022/06/23 11:44:28;;;;;;;3.35;2.58;;;;;;;24.44;34.81;101274.88;5055274;28;20068;-66
2022/06/23 11:46:54;;;;;;;2.85;1.60;;;;;;;24.53;34.28;101284.31;5055025;28;20044;-67
2022/06/23 11:49:36;;;;;;;6.13;2.53;;;;;;;23.96;34.90;101186.22;5054941;28;20033;-67
2022/06/23 11:52:11;;;;;;;6.80;1.92;;;;;;;24.62;34.29;101277.41;5054762;28;20147;-63
2022/06/23 11:55:02;;;;;;;6.03;2.22;;;;;;;24.74;33.85;101275.47;5055209;28;20067;-64
2022/06/23 11:57:41;;;;;;;8.18;2.90;;;;;;;24.68;34.50;101254.66;5055354;28;20082;-68
2022/06/23 12:00:32;;;;;;;7.50;2.88;;;;;;;24.79;34.26;101274.72;5053509;28;20381;-64
2022/06/23 12:03:23;;;;;;;4.60;1.80;;;;;;;24.64;34.08;101286.16;5053458;28;20118;-64
2022/06/23 12:06:10;;;;;;;3.55;2.20;;;;;;;24.50;34.85;101269.28;5053226;28;20037;-66
2022/06/23 12:08:38;;;;;;;4.78;2.47;;;;;;;24.59;35.55;101283.34;5053258;28;20037;-66
2022/06/23 12:11:04;;;;;;;19.25;2.45;;;;;;;24.57;35.01;101269.13;5053678;28;20041;-67
2022/06/23 12:13:32;;;;;;;3.42;1.67;;;;;;;24.36;35.67;101237.97;5054535;28;20403;-67
2022/06/23 12:15:59;;;;;;;11.80;2.38;;;;;;;24.63;35.61;101285.34;5054417;28;20033;-66
2022/06/23 12:18:57;;;;;;;6.90;2.20;;;;;;;24.44;36.96;101280.31;5054543;28;20048;-64
2022/06/23 12:21:55;;;;;;;8.05;2.40;;;;;;;24.53;37.90;101289.75;5054206;28;20052;-66
2022/06/23 12:24:32;;;;;;;;;;;;;;;24.51;38.62;101287.28;5053220;28;20051;-65
2022/06/23 12:27:45;;;;;;;7.72;2.10;;;;;;;24.35;38.43;101305.19;5054379;28;19916;-67
2022/06/23 12:30:18;;;;;;;5.40;2.58;;;;;;;24.09;37.97;101295.63;5054304;28;20060;-65